createdAt,value
2019-03-31T00:00:06.509Z,58.16
2019-03-31T00:02:34.516Z,58.70
2019-03-31T00:05:02.572Z,58.13
2019-03-31T00:07:30.618Z,58.37
2019-03-31T00:09:58.532Z,59.54
2019-03-31T00:12:26.536Z,59.00
2019-03-31T00:14:54.542Z,58.72
2019-03-31T00:17:22.521Z,58.77
2019-03-31T00:19:50.513Z,59.75
2019-03-31T00:22:18.499Z,58.72
2019-03-31T00:24:46.496Z,58.15
2019-03-31T00:27:14.531Z,57.83
2019-03-31T00:29:42.612Z,59.88
2019-03-31T00:32:10.599Z,58.22
2019-03-31T00:34:38.519Z,58.85
2019-03-31T00:37:07.829Z,59.32
2019-03-31T00:39:36.129Z,60.53
2019-03-31T00:42:04.337Z,60.42
2019-03-31T00:44:32.367Z,59.93
2019-03-31T00:47:02.190Z,60.84
2019-03-31T00:49:30.536Z,60.70
2019-03-31T00:51:58.698Z,59.49
2019-03-31T00:54:27.905Z,60.46
2019-03-31T00:56:56.130Z,61.27
2019-03-31T00:59:24.198Z,59.90
2019-03-31T01:01:59.104Z,60.42
2019-03-31T01:04:29.493Z,60.90
2019-03-31T01:06:57.814Z,61.31
2019-03-31T01:09:31.817Z,60.61
2019-03-31T01:12:01.119Z,61.09
2019-03-31T01:14:29.775Z,63.01
2019-03-31T01:16:58.691Z,61.20
2019-03-31T01:19:27.266Z,60.57
2019-03-31T01:21:55.381Z,60.19
2019-03-31T01:24:23.674Z,60.47
2019-03-31T01:26:51.852Z,60.67
2019-03-31T01:29:20.299Z,60.70
2019-03-31T01:31:50.773Z,63.05
2019-03-31T01:34:18.954Z,60.93
2019-03-31T01:36:47.010Z,60.10
2019-03-31T01:39:15.306Z,60.47
2019-03-31T01:41:43.285Z,60.02
2019-03-31T01:44:11.225Z,59.81
2019-03-31T01:46:39.216Z,59.59
2019-03-31T01:49:07.349Z,59.77
2019-03-31T01:51:35.455Z,59.42
2019-03-31T01:54:03.882Z,60.37
2019-03-31T01:56:31.891Z,60.81
2019-03-31T01:58:59.866Z,61.80
2019-03-31T02:01:28.009Z,63.59
2019-03-31T02:03:56.130Z,62.46
2019-03-31T02:06:24.181Z,63.21
2019-03-31T02:08:52.177Z,62.13
2019-03-31T02:11:20.161Z,62.29
2019-03-31T02:13:48.157Z,61.98
2019-03-31T02:16:16.190Z,61.42
2019-03-31T02:18:44.141Z,62.05
2019-03-31T02:21:12.129Z,61.46
2019-03-31T02:23:40.199Z,61.01
2019-03-31T02:26:08.297Z,62.64
2019-03-31T02:28:36.423Z,63.88
2019-03-31T02:31:04.517Z,62.31
2019-03-31T02:33:32.498Z,63.87
2019-03-31T02:36:00.407Z,63.92
2019-03-31T02:38:28.539Z,64.11
2019-03-31T02:40:56.770Z,67.31
2019-03-31T02:43:24.709Z,64.89
2019-03-31T02:45:52.701Z,63.25
2019-03-31T02:48:20.740Z,63.30
2019-03-31T02:50:50.176Z,63.08
2019-03-31T02:53:19.808Z,63.53
2019-03-31T02:55:48.140Z,64.28
2019-03-31T02:58:17.407Z,64.92
2019-03-31T03:00:45.529Z,64.20
2019-03-31T03:03:16.060Z,63.99
2019-03-31T03:05:44.664Z,63.40
2019-03-31T03:08:13.604Z,63.45
2019-03-31T03:10:43.309Z,66.57
2019-03-31T03:13:13.859Z,65.25
2019-03-31T03:16:13.122Z,65.44
2019-03-31T03:18:41.350Z,66.38
2019-03-31T03:21:09.310Z,68.07
2019-03-31T03:23:37.289Z,67.05
2019-03-31T03:26:05.992Z,67.75
2019-03-31T03:28:34.550Z,67.50
2019-03-31T03:31:02.978Z,69.54
2019-03-31T03:33:31.236Z,69.07
2019-03-31T03:35:59.166Z,69.40
2019-03-31T03:38:27.273Z,69.08
2019-03-31T03:40:55.216Z,67.22
2019-03-31T03:43:23.261Z,66.21
2019-03-31T03:45:51.289Z,66.22
2019-03-31T03:48:19.285Z,67.25
2019-03-31T03:50:47.313Z,66.30
2019-03-31T03:53:15.399Z,70.16
2019-03-31T03:55:43.401Z,67.66
2019-03-31T03:58:11.325Z,66.44
2019-03-31T04:00:39.329Z,68.65
2019-03-31T04:03:07.318Z,66.11
2019-03-31T04:05:35.266Z,67.37
2019-03-31T04:08:03.288Z,67.06
2019-03-31T04:11:14.488Z,66.52
2019-03-31T04:13:42.554Z,69.17
2019-03-31T04:16:10.518Z,67.38
2019-03-31T04:18:38.505Z,66.84
2019-03-31T04:21:06.617Z,67.04
2019-03-31T04:23:34.554Z,66.36
2019-03-31T04:26:02.582Z,67.26
2019-03-31T04:28:30.667Z,66.61
2019-03-31T04:30:58.599Z,67.83
2019-03-31T04:33:26.770Z,70.90
2019-03-31T04:35:54.802Z,67.25
2019-03-31T04:38:22.738Z,66.97
2019-03-31T04:40:50.729Z,65.72
2019-03-31T04:43:18.727Z,67.30
2019-03-31T04:45:46.676Z,66.03
2019-03-31T04:48:14.708Z,64.83
2019-03-31T04:50:42.732Z,64.69
2019-03-31T04:53:10.736Z,66.16
2019-03-31T04:55:38.669Z,67.22
2019-03-31T04:58:06.730Z,66.59
2019-03-31T05:00:34.694Z,65.01
2019-03-31T05:03:02.822Z,65.95
2019-03-31T05:05:30.772Z,64.39
2019-03-31T05:07:58.757Z,63.10
2019-03-31T05:10:26.746Z,64.01
2019-03-31T05:12:54.782Z,64.95
2019-03-31T05:15:22.836Z,64.00
2019-03-31T05:17:50.876Z,64.24
2019-03-31T05:20:18.887Z,62.67
2019-03-31T05:22:46.929Z,62.32
2019-03-31T05:25:14.939Z,61.25
2019-03-31T05:27:42.959Z,61.78
2019-03-31T05:30:11.259Z,61.93
2019-03-31T05:32:39.205Z,61.06
2019-03-31T05:35:07.529Z,59.28
2019-03-31T05:37:49.976Z,60.94
2019-03-31T05:40:05.563Z,61.04
2019-03-31T05:42:33.541Z,62.08
2019-03-31T05:45:01.564Z,59.11
2019-03-31T05:47:29.578Z,60.26
2019-03-31T05:49:57.564Z,60.23
2019-03-31T05:52:25.600Z,60.28
2019-03-31T05:54:53.619Z,59.85
2019-03-31T05:57:21.669Z,61.82
2019-03-31T05:59:49.646Z,61.15
2019-03-31T06:02:17.618Z,59.05
2019-03-31T06:04:45.659Z,58.96
2019-03-31T06:07:13.663Z,59.77
2019-03-31T06:09:41.691Z,60.71
2019-03-31T06:12:09.623Z,60.59
2019-03-31T06:14:37.634Z,60.71
2019-03-31T06:17:05.744Z,60.40
2019-03-31T06:19:33.744Z,59.63
2019-03-31T06:22:01.958Z,59.62
2019-03-31T06:24:30.056Z,58.35
2019-03-31T06:26:58.116Z,56.81
2019-03-31T06:29:26.174Z,56.20
2019-03-31T06:31:54.198Z,55.93
2019-03-31T06:34:22.201Z,55.36
2019-03-31T06:36:50.211Z,55.56
2019-03-31T06:39:18.289Z,54.15
2019-03-31T06:41:46.752Z,53.08
2019-03-31T06:44:14.794Z,52.45
2019-03-31T06:46:43.249Z,51.72
2019-03-31T06:49:11.759Z,52.28
2019-03-31T06:51:39.699Z,52.19
2019-03-31T06:54:08.376Z,51.64
2019-03-31T06:56:36.601Z,52.07
2019-03-31T06:59:04.721Z,51.87
2019-03-31T07:01:32.950Z,50.83
2019-03-31T07:04:00.961Z,51.26
2019-03-31T07:06:28.999Z,49.66
2019-03-31T07:08:57.044Z,48.65
2019-03-31T07:11:25.047Z,47.38
2019-03-31T07:13:53.039Z,46.59
2019-03-31T07:16:21.027Z,46.14
2019-03-31T07:18:49.197Z,45.31
2019-03-31T07:21:17.162Z,45.28
2019-03-31T07:23:45.199Z,44.72
2019-03-31T07:26:13.287Z,44.42
2019-03-31T07:28:41.404Z,43.70
2019-03-31T07:31:09.596Z,44.21
2019-03-31T07:33:37.621Z,44.31
2019-03-31T07:36:05.657Z,43.51
2019-03-31T07:38:39.238Z,43.35
2019-03-31T07:41:12.553Z,43.29
2019-03-31T07:43:33.655Z,43.50
2019-03-31T07:46:01.648Z,42.76
2019-03-31T07:48:29.686Z,41.86
2019-03-31T07:50:57.642Z,42.00
2019-03-31T07:53:25.774Z,42.65
2019-03-31T07:55:53.853Z,42.11
2019-03-31T07:58:22.040Z,42.28
2019-03-31T08:00:50.049Z,42.90
2019-03-31T08:03:18.094Z,42.93
2019-03-31T08:05:46.106Z,42.85
2019-03-31T08:08:14.196Z,42.51
2019-03-31T08:10:43.609Z,41.57
2019-03-31T08:13:11.752Z,41.14
2019-03-31T08:15:39.776Z,41.22
2019-03-31T08:18:07.816Z,40.65
2019-03-31T08:20:35.846Z,41.37
2019-03-31T08:23:03.848Z,41.69
2019-03-31T08:25:31.853Z,41.37
2019-03-31T08:28:00.007Z,41.67
2019-03-31T08:30:28.264Z,41.51
2019-03-31T08:32:56.485Z,41.73
2019-03-31T08:35:24.552Z,40.21
2019-03-31T08:37:52.497Z,39.24
2019-03-31T08:40:20.729Z,39.54
2019-03-31T08:42:48.832Z,39.17
2019-03-31T08:45:17.127Z,38.78
2019-03-31T08:47:45.171Z,38.40
2019-03-31T08:50:14.020Z,38.29
2019-03-31T08:52:42.039Z,37.53
2019-03-31T08:55:11.464Z,37.23
2019-03-31T08:57:39.582Z,37.82
2019-03-31T09:00:13.535Z,37.26
2019-03-31T09:02:41.571Z,36.05
2019-03-31T09:05:10.123Z,36.48
2019-03-31T09:07:41.601Z,36.50
2019-03-31T09:10:09.691Z,36.91
2019-03-31T09:12:38.278Z,36.30
2019-03-31T09:15:09.412Z,35.65
2019-03-31T09:17:37.755Z,36.05
2019-03-31T09:20:06.795Z,34.98
2019-03-31T09:22:34.908Z,36.08
2019-03-31T09:25:03.153Z,36.29
2019-03-31T09:27:32.076Z,36.55
2019-03-31T09:30:00.522Z,36.10
2019-03-31T09:32:28.783Z,35.79
2019-03-31T09:34:56.946Z,34.87
2019-03-31T09:37:25.151Z,34.70
2019-03-31T09:39:53.249Z,35.17
2019-03-31T09:42:21.359Z,35.37
2019-03-31T09:44:49.504Z,34.52
2019-03-31T09:47:17.573Z,34.35
2019-03-31T09:49:45.641Z,34.43
2019-03-31T09:52:13.768Z,32.88
2019-03-31T09:54:41.788Z,32.43
2019-03-31T09:57:09.892Z,32.45
2019-03-31T09:59:37.871Z,32.87
2019-03-31T10:02:06.068Z,32.81
2019-03-31T10:04:34.129Z,31.48
2019-03-31T10:07:02.268Z,30.16
2019-03-31T10:09:30.714Z,30.93
2019-03-31T10:11:58.909Z,31.23
2019-03-31T10:14:27.079Z,30.58
2019-03-31T10:16:55.229Z,29.55
2019-03-31T10:19:23.426Z,29.93
2019-03-31T10:21:51.605Z,29.96
2019-03-31T10:24:19.572Z,30.29
2019-03-31T10:26:47.681Z,29.69
2019-03-31T10:29:15.824Z,29.38
2019-03-31T10:31:43.894Z,28.31
2019-03-31T10:34:12.079Z,28.60
2019-03-31T10:36:44.741Z,28.61
2019-03-31T10:39:10.602Z,29.11
2019-03-31T10:41:39.036Z,29.11
2019-03-31T10:44:07.257Z,27.88
2019-03-31T10:46:35.547Z,28.22
2019-03-31T10:49:03.796Z,28.02
2019-03-31T10:51:31.926Z,28.24
2019-03-31T10:54:00.190Z,28.79
2019-03-31T10:56:28.315Z,28.16
2019-03-31T10:58:57.192Z,28.28
2019-03-31T11:01:25.269Z,27.30
2019-03-31T11:03:53.239Z,27.31
2019-03-31T11:06:21.436Z,28.04
2019-03-31T11:08:49.864Z,27.82
2019-03-31T11:11:18.175Z,28.05
2019-03-31T11:13:46.215Z,28.55
2019-03-31T11:16:15.013Z,28.86
2019-03-31T11:18:43.104Z,29.02
2019-03-31T11:21:18.202Z,28.22
2019-03-31T11:23:46.484Z,28.67
2019-03-31T11:26:14.473Z,28.95
2019-03-31T11:28:42.706Z,28.22
2019-03-31T11:31:10.890Z,27.76
2019-03-31T11:33:38.878Z,27.52
2019-03-31T11:36:07.489Z,27.71
2019-03-31T11:38:37.219Z,27.42
2019-03-31T11:41:07.244Z,27.76
2019-03-31T11:43:35.368Z,28.17
2019-03-31T11:46:03.581Z,28.56
2019-03-31T11:48:32.565Z,29.10
2019-03-31T11:51:00.641Z,29.79
2019-03-31T11:53:28.680Z,29.84
2019-03-31T11:55:56.873Z,29.99
2019-03-31T11:58:25.068Z,29.75
2019-03-31T12:00:55.730Z,29.36
2019-03-31T12:03:23.855Z,29.05
2019-03-31T12:05:51.969Z,29.25
2019-03-31T12:08:20.038Z,27.74
2019-03-31T12:10:48.063Z,28.24
2019-03-31T12:13:16.046Z,28.14
2019-03-31T12:15:44.198Z,28.50
2019-03-31T12:18:12.381Z,28.76
2019-03-31T12:20:40.510Z,28.44
2019-03-31T12:23:08.555Z,28.36
2019-03-31T12:25:37.185Z,28.60
2019-03-31T12:28:05.365Z,27.99
2019-03-31T12:30:33.489Z,28.07
2019-03-31T12:33:01.462Z,27.62
2019-03-31T12:35:29.482Z,28.10
2019-03-31T12:37:57.603Z,27.81
2019-03-31T12:40:30.171Z,28.12
2019-03-31T12:42:58.358Z,28.31
2019-03-31T12:45:26.541Z,27.54
2019-03-31T12:47:54.552Z,27.55
2019-03-31T12:50:22.759Z,28.04
2019-03-31T12:52:51.272Z,27.27
2019-03-31T12:55:19.514Z,27.02
2019-03-31T12:57:47.629Z,27.66
2019-03-31T13:00:16.572Z,27.44
2019-03-31T13:02:45.805Z,27.02
2019-03-31T13:05:13.841Z,27.04
2019-03-31T13:07:55.450Z,27.16
2019-03-31T13:10:12.231Z,27.14
2019-03-31T13:12:40.272Z,27.41
2019-03-31T13:15:08.999Z,27.22
2019-03-31T13:17:37.279Z,27.48
2019-03-31T13:20:05.895Z,27.45
2019-03-31T13:22:33.969Z,27.69
2019-03-31T13:25:02.771Z,27.71
2019-03-31T13:27:31.001Z,28.23
2019-03-31T13:29:59.006Z,28.44
2019-03-31T13:32:27.149Z,28.91
2019-03-31T13:34:55.180Z,28.80
2019-03-31T13:37:23.193Z,28.66
2019-03-31T13:39:51.299Z,28.20
2019-03-31T13:42:19.261Z,28.05
2019-03-31T13:44:47.460Z,26.99
2019-03-31T13:47:15.551Z,26.96
2019-03-31T13:49:43.569Z,26.72
2019-03-31T13:52:11.701Z,26.31
2019-03-31T13:54:39.786Z,26.91
2019-03-31T13:57:08.832Z,26.72
2019-03-31T13:59:37.835Z,26.74
2019-03-31T14:02:06.362Z,26.77
2019-03-31T14:04:40.323Z,26.88
2019-03-31T14:07:04.652Z,26.79
2019-03-31T14:09:32.814Z,26.87
2019-03-31T14:12:01.634Z,26.82
2019-03-31T14:14:30.809Z,26.88
2019-03-31T14:16:58.830Z,26.17
2019-03-31T14:19:27.349Z,25.83
2019-03-31T14:21:55.475Z,25.74
2019-03-31T14:24:26.764Z,26.07
2019-03-31T14:26:53.539Z,26.19
2019-03-31T14:29:21.806Z,26.08
2019-03-31T14:31:51.994Z,25.38
2019-03-31T14:34:19.830Z,26.01
2019-03-31T14:36:47.954Z,25.75
2019-03-31T14:39:17.275Z,25.84
2019-03-31T14:41:45.471Z,26.47
2019-03-31T14:44:13.540Z,27.00
2019-03-31T14:46:41.748Z,26.97
2019-03-31T14:49:09.781Z,26.48
2019-03-31T14:51:37.811Z,25.75
2019-03-31T14:54:05.832Z,26.60
2019-03-31T14:56:33.870Z,26.86
2019-03-31T14:59:02.001Z,25.99
2019-03-31T15:01:30.108Z,26.38
2019-03-31T15:03:58.172Z,27.52
2019-03-31T15:06:26.286Z,28.44
2019-03-31T15:08:54.857Z,28.66
2019-03-31T15:11:23.008Z,28.62
2019-03-31T15:13:50.991Z,28.13
2019-03-31T15:16:19.140Z,28.58
2019-03-31T15:18:47.378Z,28.68
2019-03-31T15:21:15.426Z,28.42
2019-03-31T15:23:43.856Z,28.34
2019-03-31T15:26:11.904Z,28.28
2019-03-31T15:28:40.024Z,28.15
2019-03-31T15:31:08.305Z,28.44
2019-03-31T15:33:36.359Z,28.57
2019-03-31T15:36:04.532Z,28.45
2019-03-31T15:38:32.690Z,28.31
2019-03-31T15:41:00.670Z,28.78
2019-03-31T15:43:28.798Z,28.80
2019-03-31T15:45:56.969Z,28.87
2019-03-31T15:48:25.258Z,29.01
2019-03-31T15:50:53.432Z,28.98
2019-03-31T15:53:21.581Z,29.07
2019-03-31T15:55:49.821Z,29.36
2019-03-31T15:58:18.109Z,29.43
2019-03-31T16:00:46.180Z,29.35
2019-03-31T16:03:14.339Z,29.02
2019-03-31T16:05:42.493Z,29.18
2019-03-31T16:08:10.164Z,29.76
2019-03-31T16:10:37.731Z,30.14
2019-03-31T16:13:05.232Z,30.60
2019-03-31T16:15:33.037Z,31.11
2019-03-31T16:18:00.460Z,31.50
2019-03-31T16:20:27.952Z,31.64
2019-03-31T16:22:55.456Z,31.89
2019-03-31T16:25:31.886Z,31.89
2019-03-31T16:27:59.484Z,32.21
2019-03-31T16:30:27.571Z,32.38
2019-03-31T16:32:55.512Z,32.37
2019-03-31T16:35:23.192Z,32.50
2019-03-31T16:37:50.730Z,32.77
2019-03-31T16:40:18.237Z,32.98
2019-03-31T16:42:45.811Z,33.34
2019-03-31T16:45:13.753Z,33.94
2019-03-31T16:47:41.418Z,34.25
2019-03-31T16:50:10.020Z,34.69
2019-03-31T16:52:37.599Z,34.97
2019-03-31T16:55:05.618Z,35.19
2019-03-31T16:57:33.179Z,35.49
2019-03-31T17:00:00.765Z,35.69
2019-03-31T17:02:28.282Z,35.81
2019-03-31T17:04:55.804Z,35.92
2019-03-31T17:07:23.292Z,36.07
2019-03-31T17:09:56.261Z,36.17
2019-03-31T17:12:24.419Z,36.24
2019-03-31T17:14:52.295Z,36.29
2019-03-31T17:17:19.876Z,36.51
2019-03-31T17:19:47.347Z,36.58
2019-03-31T17:22:14.906Z,36.54
2019-03-31T17:24:42.702Z,36.69
2019-03-31T17:27:13.883Z,36.67
2019-03-31T17:29:40.064Z,36.70
2019-03-31T17:32:07.900Z,36.67
2019-03-31T17:34:35.960Z,36.83
2019-03-31T17:37:03.676Z,36.81
2019-03-31T17:39:31.211Z,36.96
2019-03-31T17:41:58.767Z,36.94
2019-03-31T17:44:26.235Z,37.13
2019-03-31T17:46:53.835Z,37.09
2019-03-31T17:49:21.279Z,37.23
2019-03-31T17:51:48.975Z,37.43
2019-03-31T17:54:16.537Z,37.68
2019-03-31T17:56:44.538Z,37.39
2019-03-31T17:59:11.922Z,37.46
2019-03-31T18:01:39.499Z,37.37
2019-03-31T18:04:07.046Z,38.01
2019-03-31T18:06:34.572Z,38.65
2019-03-31T18:09:04.151Z,39.30
2019-03-31T18:11:31.853Z,38.94
2019-03-31T18:13:59.498Z,38.93
2019-03-31T18:16:27.087Z,38.82
2019-03-31T18:18:54.633Z,38.95
2019-03-31T18:21:22.230Z,39.35
2019-03-31T18:23:49.858Z,39.33
2019-03-31T18:26:17.385Z,38.97
2019-03-31T18:28:44.828Z,38.99
2019-03-31T18:31:12.357Z,39.03
2019-03-31T18:33:40.747Z,38.82
2019-03-31T18:36:08.435Z,39.70
2019-03-31T18:38:35.934Z,40.06
2019-03-31T18:41:04.562Z,39.93
2019-03-31T18:43:32.078Z,39.77
2019-03-31T18:46:00.096Z,39.71
2019-03-31T18:48:27.579Z,39.28
2019-03-31T18:50:55.389Z,39.21
2019-03-31T18:53:35.965Z,39.43
2019-03-31T18:56:14.127Z,39.55
2019-03-31T18:58:58.015Z,39.51
2019-03-31T19:01:41.821Z,40.33
2019-03-31T19:04:35.209Z,40.63
2019-03-31T19:07:23.020Z,40.77
2019-03-31T19:09:59.693Z,40.84
2019-03-31T19:12:49.588Z,40.90
2019-03-31T19:15:42.805Z,41.16
2019-03-31T19:18:19.137Z,41.07
2019-03-31T19:21:10.476Z,41.20
2019-03-31T19:23:34.338Z,41.00
2019-03-31T19:26:22.811Z,41.27
2019-03-31T19:29:27.933Z,41.86
2019-03-31T19:32:14.060Z,42.28
2019-03-31T19:35:07.158Z,42.29
2019-03-31T19:38:05.966Z,42.46
2019-03-31T19:41:03.274Z,42.72
2019-03-31T19:43:39.195Z,43.08
2019-03-31T19:46:21.760Z,43.42
2019-03-31T19:49:11.604Z,43.54
2019-03-31T19:52:06.778Z,43.89
2019-03-31T19:54:44.252Z,43.61
2019-03-31T19:57:31.712Z,43.96
2019-03-31T20:00:30.692Z,44.06
2019-03-31T20:03:10.052Z,44.32
2019-03-31T20:05:55.624Z,44.41
2019-03-31T20:08:37.874Z,44.93
2019-03-31T20:11:33.853Z,45.48
2019-03-31T20:14:19.793Z,44.73
2019-03-31T20:17:13.148Z,44.97
2019-03-31T20:20:09.495Z,45.08
2019-03-31T20:22:48.788Z,45.25
2019-03-31T20:25:27.553Z,45.56
2019-03-31T20:28:23.801Z,45.56
2019-03-31T20:31:09.624Z,46.00
2019-03-31T20:33:52.568Z,45.94
2019-03-31T20:36:39.698Z,45.83
2019-03-31T20:39:56.101Z,45.89
2019-03-31T20:42:18.387Z,45.65
2019-03-31T20:44:45.862Z,45.37
2019-03-31T20:47:13.550Z,45.57
2019-03-31T20:49:41.021Z,45.74
2019-03-31T20:52:08.566Z,45.86
2019-03-31T20:54:36.266Z,45.65
2019-03-31T20:57:03.986Z,45.95
2019-03-31T20:59:31.574Z,46.04
2019-03-31T21:01:59.111Z,46.12
2019-03-31T21:04:26.766Z,46.22
2019-03-31T21:06:54.209Z,46.25
2019-03-31T21:09:21.736Z,47.25
2019-03-31T21:11:49.386Z,46.92
2019-03-31T21:14:17.167Z,46.99
2019-03-31T21:16:44.663Z,47.24
2019-03-31T21:19:12.223Z,47.28
2019-03-31T21:21:39.716Z,47.59
2019-03-31T21:24:07.240Z,47.49
2019-03-31T21:26:34.796Z,47.84
2019-03-31T21:29:02.326Z,47.38
2019-03-31T21:31:29.798Z,47.67
2019-03-31T21:33:57.273Z,47.80
2019-03-31T21:36:24.767Z,47.40
2019-03-31T21:38:52.217Z,47.81
2019-03-31T21:41:19.686Z,47.79
2019-03-31T21:43:47.158Z,48.13
2019-03-31T21:46:14.633Z,47.72
2019-03-31T21:48:42.205Z,47.94
2019-03-31T21:51:09.729Z,48.20
2019-03-31T21:53:37.311Z,48.76
2019-03-31T21:56:04.753Z,50.60
2019-03-31T21:58:32.351Z,50.75
2019-03-31T22:01:00.317Z,50.83
2019-03-31T22:03:27.814Z,50.36
2019-03-31T22:05:55.354Z,50.56
2019-03-31T22:08:22.962Z,50.64
2019-03-31T22:10:50.464Z,50.53
2019-03-31T22:13:18.088Z,50.43
2019-03-31T22:15:45.555Z,50.60
2019-03-31T22:18:13.225Z,50.53
2019-03-31T22:20:40.779Z,50.80
2019-03-31T22:23:08.218Z,50.90
2019-03-31T22:25:37.435Z,50.53
2019-03-31T22:28:04.886Z,50.38
2019-03-31T22:30:33.511Z,50.42
2019-03-31T22:33:01.153Z,51.05
2019-03-31T22:35:28.744Z,50.80
2019-03-31T22:37:56.485Z,51.09
2019-03-31T22:40:24.191Z,51.59
2019-03-31T22:42:51.666Z,51.53
2019-03-31T22:45:19.215Z,51.84
2019-03-31T22:47:46.668Z,52.00
2019-03-31T22:50:14.356Z,52.00
2019-03-31T22:52:42.003Z,51.91
2019-03-31T22:55:09.746Z,51.95
2019-03-31T22:57:37.177Z,51.88
2019-03-31T23:00:05.608Z,51.47
2019-03-31T23:02:33.163Z,51.90
2019-03-31T23:05:02.167Z,52.42
2019-03-31T23:07:29.748Z,52.64
2019-03-31T23:09:57.192Z,52.53
2019-03-31T23:12:24.598Z,53.40
2019-03-31T23:14:52.028Z,53.82
2019-03-31T23:17:19.819Z,53.93
2019-03-31T23:19:47.274Z,54.25
2019-03-31T23:22:14.689Z,54.81
2019-03-31T23:24:42.143Z,55.79
2019-03-31T23:27:09.594Z,56.63
2019-03-31T23:29:37.096Z,57.54
2019-03-31T23:32:04.525Z,58.04
2019-03-31T23:34:32.032Z,58.57
2019-03-31T23:36:59.409Z,58.94
2019-03-31T23:39:26.874Z,59.56
2019-03-31T23:41:54.385Z,59.49
2019-03-31T23:44:21.837Z,59.35
2019-03-31T23:46:49.283Z,60.20
2019-03-31T23:49:16.757Z,59.04
2019-03-31T23:51:44.246Z,58.71
2019-03-31T23:54:11.698Z,57.51
2019-03-31T23:56:39.218Z,58.77
2019-03-31T23:59:06.832Z,57.08
